sensor_id;sensor_type;location;lat;lon;timestamp;pressure;altitude;pressure_sealevel;temperature;humidity
22872;BME280;11603;44.910;8.630;2022-10-16T00:01:11;100978.78;;;19.14;100.00
22872;BME280;11603;44.910;8.630;2022-10-16T00:03:38;100976.19;;;19.22;100.00
22872;BME280;11603;44.910;8.630;2022-10-16T00:06:04;100982.78;;;19.29;100.00
22872;BME280;11603;44.910;8.630;2022-10-16T00:08:30;100980.50;;;19.34;100.00
22872;BME280;11603;44.910;8.630;2022-10-16T00:11:04;100985.50;;;19.38;100.00
22872;BME280;11603;44.910;8.630;2022-10-16T00:13:32;100979.06;;;19.39;100.00
22872;BME280;11603;44.910;8.630;2022-10-16T00:15:58;100983.50;;;19.40;100.00
22872;BME280;11603;44.910;8.630;2022-10-16T00:18:25;100977.91;;;19.42;100.00
22872;BME280;11603;44.910;8.630;2022-10-16T00:20:51;100981.34;;;19.44;100.00
22872;BME280;11603;44.910;8.630;2022-10-16T00:23:17;100983.81;;;19.47;100.00
22872;BME280;11603;44.910;8.630;2022-10-16T00:25:42;100977.97;;;19.52;100.00
22872;BME280;11603;44.910;8.630;2022-10-16T00:28:08;100971.38;;;19.54;100.00
22872;BME280;11603;44.910;8.630;2022-10-16T00:30:33;100974.84;;;19.56;100.00
22872;BME280;11603;44.910;8.630;2022-10-16T00:32:59;100972.13;;;19.56;100.00
22872;BME280;11603;44.910;8.630;2022-10-16T00:35:24;100974.97;;;19.55;100.00
22872;BME280;11603;44.910;8.630;2022-10-16T00:37:50;100974.84;;;19.56;100.00
22872;BME280;11603;44.910;8.630;2022-10-16T00:40:16;100978.53;;;19.55;100.00
22872;BME280;11603;44.910;8.630;2022-10-16T00:42:42;100981.25;;;19.55;100.00
22872;BME280;11603;44.910;8.630;2022-10-16T00:45:08;100985.09;;;19.53;100.00
22872;BME280;11603;44.910;8.630;2022-10-16T00:47:40;100985.81;;;19.55;100.00
22872;BME280;11603;44.910;8.630;2022-10-16T00:50:11;100980.69;;;19.52;100.00
22872;BME280;11603;44.910;8.630;2022-10-16T00:52:42;100989.81;;;19.51;100.00
22872;BME280;11603;44.910;8.630;2022-10-16T00:55:10;100983.50;;;19.40;100.00
22872;BME280;11603;44.910;8.630;2022-10-16T00:57:36;100989.19;;;19.37;100.00
22872;BME280;11603;44.910;8.630;2022-10-16T01:00:07;100986.91;;;19.23;100.00
22872;BME280;11603;44.910;8.630;2022-10-16T01:02:33;100990.19;;;19.17;100.00
22872;BME280;11603;44.910;8.630;2022-10-16T01:04:59;100988.03;;;19.11;100.00
22872;BME280;11603;44.910;8.630;2022-10-16T01:13:04;100995.47;;;18.99;100.00
22872;BME280;11603;44.910;8.630;2022-10-16T01:15:35;100996.44;;;18.98;100.00
22872;BME280;11603;44.910;8.630;2022-10-16T01:18:20;100992.56;;;18.91;100.00
22872;BME280;11603;44.910;8.630;2022-10-16T01:20:54;100994.72;;;18.88;100.00
22872;BME280;11603;44.910;8.630;2022-10-16T01:28:30;101006.53;;;18.77;100.00
22872;BME280;11603;44.910;8.630;2022-10-16T01:30:59;100998.09;;;18.80;100.00
22872;BME280;11603;44.910;8.630;2022-10-16T01:33:42;101005.22;;;18.81;100.00
22872;BME280;11603;44.910;8.630;2022-10-16T01:36:14;101007.09;;;18.81;100.00
22872;BME280;11603;44.910;8.630;2022-10-16T01:38:43;100994.94;;;18.75;100.00
22872;BME280;11603;44.910;8.630;2022-10-16T01:41:21;101006.53;;;18.77;100.00
22872;BME280;11603;44.910;8.630;2022-10-16T01:43:58;101014.53;;;18.79;100.00
22872;BME280;11603;44.910;8.630;2022-10-16T01:46:27;101010.94;;;18.78;100.00
22872;BME280;11603;44.910;8.630;2022-10-16T01:48:55;101008.94;;;18.80;100.00
22872;BME280;11603;44.910;8.630;2022-10-16T01:51:21;101012.94;;;18.86;100.00
22872;BME280;11603;44.910;8.630;2022-10-16T01:53:53;101014.34;;;18.71;100.00
22872;BME280;11603;44.910;8.630;2022-10-16T01:56:20;101006.03;;;18.63;100.00
22872;BME280;11603;44.910;8.630;2022-10-16T01:58:52;101009.28;;;18.56;100.00
22872;BME280;11603;44.910;8.630;2022-10-16T02:01:22;101021.25;;;18.54;100.00
22872;BME280;11603;44.910;8.630;2022-10-16T02:03:51;101014.16;;;18.63;100.00
22872;BME280;11603;44.910;8.630;2022-10-16T02:06:18;101012.91;;;18.67;100.00
22872;BME280;11603;44.910;8.630;2022-10-16T02:08:44;101012.16;;;18.65;100.00
22872;BME280;11603;44.910;8.630;2022-10-16T02:11:10;101009.31;;;18.66;100.00
22872;BME280;11603;44.910;8.630;2022-10-16T02:13:44;101012.31;;;18.63;100.00
22872;BME280;11603;44.910;8.630;2022-10-16T02:16:12;101014.28;;;18.61;100.00
22872;BME280;11603;44.910;8.630;2022-10-16T02:18:40;101033.53;;;18.58;100.00
22872;BME280;11603;44.910;8.630;2022-10-16T02:21:17;101023.53;;;18.58;100.00
22872;BME280;11603;44.910;8.630;2022-10-16T02:26:27;101024.00;;;18.63;100.00
22872;BME280;11603;44.910;8.630;2022-10-16T02:29:00;101020.44;;;18.63;100.00
22872;BME280;11603;44.910;8.630;2022-10-16T02:31:33;101019.88;;;18.69;100.00
22872;BME280;11603;44.910;8.630;2022-10-16T02:34:02;101023.59;;;18.68;100.00
22872;BME280;11603;44.910;8.630;2022-10-16T02:36:30;101014.47;;;18.69;100.00
22872;BME280;11603;44.910;8.630;2022-10-16T02:38:57;101017.31;;;18.68;100.00
22872;BME280;11603;44.910;8.630;2022-10-16T02:41:25;101017.44;;;18.66;100.00
22872;BME280;11603;44.910;8.630;2022-10-16T02:43:51;101018.88;;;18.70;100.00
22872;BME280;11603;44.910;8.630;2022-10-16T02:46:17;101026.03;;;18.71;100.00
22872;BME280;11603;44.910;8.630;2022-10-16T02:48:43;101023.19;;;18.73;100.00
22872;BME280;11603;44.910;8.630;2022-10-16T02:51:08;101029.59;;;18.72;100.00
22872;BME280;11603;44.910;8.630;2022-10-16T02:53:34;101015.06;;;18.73;100.00
22872;BME280;11603;44.910;8.630;2022-10-16T02:55:59;101028.06;;;18.79;100.00
22872;BME280;11603;44.910;8.630;2022-10-16T02:58:25;101029.75;;;18.80;100.00
22872;BME280;11603;44.910;8.630;2022-10-16T03:00:50;101035.19;;;18.80;100.00
22872;BME280;11603;44.910;8.630;2022-10-16T03:03:16;101031.47;;;18.81;100.00
22872;BME280;11603;44.910;8.630;2022-10-16T03:05:43;101038.75;;;18.80;100.00
22872;BME280;11603;44.910;8.630;2022-10-16T03:08:08;101034.06;;;18.82;100.00
22872;BME280;11603;44.910;8.630;2022-10-16T03:10:34;101029.06;;;18.78;100.00
22872;BME280;11603;44.910;8.630;2022-10-16T03:12:59;101034.59;;;18.76;100.00
22872;BME280;11603;44.910;8.630;2022-10-16T03:15:24;101030.72;;;18.69;100.00
22872;BME280;11603;44.910;8.630;2022-10-16T03:17:51;101045.28;;;18.68;100.00
22872;BME280;11603;44.910;8.630;2022-10-16T03:20:16;101043.41;;;18.69;100.00
22872;BME280;11603;44.910;8.630;2022-10-16T03:22:42;101046.41;;;18.66;100.00
22872;BME280;11603;44.910;8.630;2022-10-16T03:25:07;101049.53;;;18.61;100.00
22872;BME280;11603;44.910;8.630;2022-10-16T03:27:33;101054.22;;;18.59;100.00
22872;BME280;11603;44.910;8.630;2022-10-16T03:29:58;101053.75;;;18.54;100.00
22872;BME280;11603;44.910;8.630;2022-10-16T03:32:24;101059.06;;;18.55;100.00
22872;BME280;11603;44.910;8.630;2022-10-16T03:34:50;101052.28;;;18.50;100.00
22872;BME280;11603;44.910;8.630;2022-10-16T03:37:15;101059.44;;;18.51;100.00
22872;BME280;11603;44.910;8.630;2022-10-16T03:39:41;101065.84;;;18.50;100.00
22872;BME280;11603;44.910;8.630;2022-10-16T03:42:06;101054.94;;;18.40;100.00
22872;BME280;11603;44.910;8.630;2022-10-16T03:44:32;101069.59;;;18.38;100.00
22872;BME280;11603;44.910;8.630;2022-10-16T03:46:57;101061.22;;;18.41;100.00
22872;BME280;11603;44.910;8.630;2022-10-16T03:49:23;101060.69;;;18.47;100.00
22872;BME280;11603;44.910;8.630;2022-10-16T03:51:48;101061.16;;;18.52;100.00
22872;BME280;11603;44.910;8.630;2022-10-16T03:54:14;101057.31;;;18.54;100.00
22872;BME280;11603;44.910;8.630;2022-10-16T03:56:39;101058.94;;;18.57;100.00
22872;BME280;11603;44.910;8.630;2022-10-16T03:59:05;101058.22;;;18.65;100.00
22872;BME280;11603;44.910;8.630;2022-10-16T04:01:30;101058.97;;;18.67;100.00
22872;BME280;11603;44.910;8.630;2022-10-16T04:03:56;101052.97;;;18.63;100.00
22872;BME280;11603;44.910;8.630;2022-10-16T04:06:21;101056.91;;;18.59;100.00
22872;BME280;11603;44.910;8.630;2022-10-16T04:08:48;101052.22;;;18.61;100.00
22872;BME280;11603;44.910;8.630;2022-10-16T04:11:13;101052.69;;;18.66;100.00
22872;BME280;11603;44.910;8.630;2022-10-16T04:13:39;101062.25;;;18.70;100.00
22872;BME280;11603;44.910;8.630;2022-10-16T04:16:04;101068.25;;;18.74;100.00
22872;BME280;11603;44.910;8.630;2022-10-16T04:18:30;101067.66;;;18.70;100.00
22872;BME280;11603;44.910;8.630;2022-10-16T04:20:55;101072.97;;;18.72;100.00
22872;BME280;11603;44.910;8.630;2022-10-16T04:23:21;101072.69;;;18.75;100.00
22872;BME280;11603;44.910;8.630;2022-10-16T04:25:48;101077.97;;;18.76;100.00
22872;BME280;11603;44.910;8.630;2022-10-16T04:28:14;101081.41;;;18.78;100.00
22872;BME280;11603;44.910;8.630;2022-10-16T04:30:39;101091.00;;;18.82;100.00
22872;BME280;11603;44.910;8.630;2022-10-16T04:33:05;101089.25;;;18.81;100.00
22872;BME280;11603;44.910;8.630;2022-10-16T04:35:30;101093.81;;;18.81;100.00
22872;BME280;11603;44.910;8.630;2022-10-16T04:37:59;101101.09;;;18.80;100.00
22872;BME280;11603;44.910;8.630;2022-10-16T04:40:24;101100.78;;;18.74;100.00
22872;BME280;11603;44.910;8.630;2022-10-16T04:42:50;101105.91;;;18.67;100.00
22872;BME280;11603;44.910;8.630;2022-10-16T04:45:15;101111.56;;;18.64;100.00
22872;BME280;11603;44.910;8.630;2022-10-16T04:47:41;101116.00;;;18.65;100.00
22872;BME280;11603;44.910;8.630;2022-10-16T04:50:06;101112.09;;;18.58;100.00
22872;BME280;11603;44.910;8.630;2022-10-16T04:52:32;101109.66;;;18.55;100.00
22872;BME280;11603;44.910;8.630;2022-10-16T04:54:58;101107.06;;;18.53;100.00
22872;BME280;11603;44.910;8.630;2022-10-16T04:57:26;101112.25;;;18.56;100.00
22872;BME280;11603;44.910;8.630;2022-10-16T04:59:52;101112.09;;;18.58;100.00
22872;BME280;11603;44.910;8.630;2022-10-16T05:02:18;101110.66;;;18.54;100.00
22872;BME280;11603;44.910;8.630;2022-10-16T05:04:43;101109.31;;;18.48;100.00
22872;BME280;11603;44.910;8.630;2022-10-16T05:07:09;101114.53;;;18.40;100.00
22872;BME280;11603;44.910;8.630;2022-10-16T05:09:34;101111.44;;;18.45;100.00
22872;BME280;11603;44.910;8.630;2022-10-16T05:12:00;101104.91;;;18.47;100.00
22872;BME280;11603;44.910;8.630;2022-10-16T05:14:25;101097.16;;;18.43;100.00
22872;BME280;11603;44.910;8.630;2022-10-16T05:16:50;101102.03;;;18.49;100.00
22872;BME280;11603;44.910;8.630;2022-10-16T05:19:17;101108.31;;;18.49;100.00
22872;BME280;11603;44.910;8.630;2022-10-16T05:21:42;101104.34;;;18.53;100.00
22872;BME280;11603;44.910;8.630;2022-10-16T05:24:08;101107.81;;;18.55;100.00
22872;BME280;11603;44.910;8.630;2022-10-16T05:26:34;101116.72;;;18.46;100.00
22872;BME280;11603;44.910;8.630;2022-10-16T05:29:00;101120.66;;;18.42;100.00
22872;BME280;11603;44.910;8.630;2022-10-16T05:31:25;101116.00;;;18.44;100.00
22872;BME280;11603;44.910;8.630;2022-10-16T05:33:51;101124.44;;;18.51;100.00
22872;BME280;11603;44.910;8.630;2022-10-16T05:36:16;101123.59;;;18.50;100.00
22872;BME280;11603;44.910;8.630;2022-10-16T05:38:43;101121.41;;;18.44;100.00
22872;BME280;11603;44.910;8.630;2022-10-16T05:41:10;101126.94;;;18.43;100.00
22872;BME280;11603;44.910;8.630;2022-10-16T05:43:35;101127.97;;;18.42;100.00
22872;BME280;11603;44.910;8.630;2022-10-16T05:46:03;101126.63;;;18.36;100.00
22872;BME280;11603;44.910;8.630;2022-10-16T05:48:29;101128.94;;;18.41;100.00
22872;BME280;11603;44.910;8.630;2022-10-16T05:53:24;101130.22;;;18.37;100.00
22872;BME280;11603;44.910;8.630;2022-10-16T05:55:55;101130.06;;;18.38;100.00
22872;BME280;11603;44.910;8.630;2022-10-16T05:58:21;101138.19;;;18.38;100.00
22872;BME280;11603;44.910;8.630;2022-10-16T06:00:58;101137.19;;;18.39;100.00
22872;BME280;11603;44.910;8.630;2022-10-16T06:03:24;101144.94;;;18.44;100.00
22872;BME280;11603;44.910;8.630;2022-10-16T06:05:50;101145.06;;;18.42;100.00
22872;BME280;11603;44.910;8.630;2022-10-16T06:08:16;101152.59;;;18.39;100.00
22872;BME280;11603;44.910;8.630;2022-10-16T06:10:42;101155.56;;;18.36;100.00
22872;BME280;11603;44.910;8.630;2022-10-16T06:13:09;101153.06;;;18.44;100.00
22872;BME280;11603;44.910;8.630;2022-10-16T06:15:34;101155.50;;;18.47;100.00
22872;BME280;11603;44.910;8.630;2022-10-16T06:18:00;101163.84;;;18.55;100.00
22872;BME280;11603;44.910;8.630;2022-10-16T06:20:26;101158.44;;;18.55;100.00
22872;BME280;11603;44.910;8.630;2022-10-16T06:22:51;101162.75;;;18.57;100.00
22872;BME280;11603;44.910;8.630;2022-10-16T06:25:17;101162.19;;;18.63;100.00
22872;BME280;11603;44.910;8.630;2022-10-16T06:27:42;101167.38;;;18.67;100.00
22872;BME280;11603;44.910;8.630;2022-10-16T06:30:08;101166.84;;;18.73;100.00
22872;BME280;11603;44.910;8.630;2022-10-16T06:32:34;101168.16;;;18.78;100.00
22872;BME280;11603;44.910;8.630;2022-10-16T06:34:59;101169.72;;;18.81;100.00
22872;BME280;11603;44.910;8.630;2022-10-16T06:37:25;101180.03;;;18.87;100.00
22872;BME280;11603;44.910;8.630;2022-10-16T06:39:51;101178.19;;;18.87;100.00
22872;BME280;11603;44.910;8.630;2022-10-16T06:42:19;101179.50;;;18.93;100.00
22872;BME280;11603;44.910;8.630;2022-10-16T06:44:45;101194.63;;;18.95;100.00
22872;BME280;11603;44.910;8.630;2022-10-16T06:47:10;101187.22;;;18.97;100.00
22872;BME280;11603;44.910;8.630;2022-10-16T06:49:36;101186.25;;;18.98;100.00
22872;BME280;11603;44.910;8.630;2022-10-16T06:52:02;101200.78;;;18.97;100.00
22872;BME280;11603;44.910;8.630;2022-10-16T06:54:27;101196.94;;;19.00;100.00
22872;BME280;11603;44.910;8.630;2022-10-16T06:56:53;101204.94;;;19.01;100.00
22872;BME280;11603;44.910;8.630;2022-10-16T06:59:22;101209.50;;;19.01;100.00
22872;BME280;11603;44.910;8.630;2022-10-16T07:01:48;101214.47;;;18.96;100.00
22872;BME280;11603;44.910;8.630;2022-10-16T07:04:13;101220.75;;;18.96;100.00
22872;BME280;11603;44.910;8.630;2022-10-16T07:06:39;101214.63;;;18.94;100.00
22872;BME280;11603;44.910;8.630;2022-10-16T07:09:07;101227.84;;;18.88;100.00
22872;BME280;11603;44.910;8.630;2022-10-16T07:11:34;101227.50;;;18.81;100.00
22872;BME280;11603;44.910;8.630;2022-10-16T07:14:01;101232.34;;;18.78;100.00
22872;BME280;11603;44.910;8.630;2022-10-16T07:16:28;101237.78;;;18.78;100.00
22872;BME280;11603;44.910;8.630;2022-10-16T07:18:59;101233.66;;;18.83;100.00
22872;BME280;11603;44.910;8.630;2022-10-16T07:21:27;101239.69;;;18.87;100.00
22872;BME280;11603;44.910;8.630;2022-10-16T07:23:58;101244.13;;;18.88;100.00
22872;BME280;11603;44.910;8.630;2022-10-16T07:26:25;101253.09;;;18.88;100.00
22872;BME280;11603;44.910;8.630;2022-10-16T07:28:51;101246.03;;;18.76;100.00
22872;BME280;11603;44.910;8.630;2022-10-16T07:31:19;101252.91;;;18.80;100.00
22872;BME280;11603;44.910;8.630;2022-10-16T07:33:46;101253.81;;;18.70;100.00
22872;BME280;11603;44.910;8.630;2022-10-16T07:36:13;101258.13;;;18.72;100.00
22872;BME280;11603;44.910;8.630;2022-10-16T07:38:39;101262.41;;;18.75;100.00
22872;BME280;11603;44.910;8.630;2022-10-16T07:41:06;101259.47;;;18.78;100.00
22872;BME280;11603;44.910;8.630;2022-10-16T07:43:33;101265.41;;;18.72;100.00
22872;BME280;11603;44.910;8.630;2022-10-16T07:45:59;101271.44;;;18.64;100.00
22872;BME280;11603;44.910;8.630;2022-10-16T07:48:27;101268.28;;;18.80;100.00
22872;BME280;11603;44.910;8.630;2022-10-16T07:50:57;101271.88;;;18.80;100.00
22872;BME280;11603;44.910;8.630;2022-10-16T07:53:23;101268.00;;;18.94;100.00
22872;BME280;11603;44.910;8.630;2022-10-16T07:55:48;101269.44;;;18.98;100.00
22872;BME280;11603;44.910;8.630;2022-10-16T07:58:14;101267.19;;;19.03;100.00
22872;BME280;11603;44.910;8.630;2022-10-16T08:00:39;101273.19;;;19.07;100.00
22872;BME280;11603;44.910;8.630;2022-10-16T08:03:05;101276.25;;;19.13;100.00
22872;BME280;11603;44.910;8.630;2022-10-16T08:05:31;101280.31;;;19.28;100.00
22872;BME280;11603;44.910;8.630;2022-10-16T08:07:58;101286.19;;;19.54;100.00
22872;BME280;11603;44.910;8.630;2022-10-16T08:10:25;101283.97;;;19.69;100.00
22872;BME280;11603;44.910;8.630;2022-10-16T08:12:52;101273.59;;;19.83;100.00
22872;BME280;11603;44.910;8.630;2022-10-16T08:15:18;101279.63;;;19.97;100.00
22872;BME280;11603;44.910;8.630;2022-10-16T08:17:44;101278.22;;;20.02;100.00
22872;BME280;11603;44.910;8.630;2022-10-16T08:20:10;101279.09;;;20.03;100.00
22872;BME280;11603;44.910;8.630;2022-10-16T08:22:36;101281.81;;;20.12;100.00
22872;BME280;11603;44.910;8.630;2022-10-16T08:25:01;101283.84;;;20.20;100.00
22872;BME280;11603;44.910;8.630;2022-10-16T08:27:33;101284.97;;;20.27;100.00
22872;BME280;11603;44.910;8.630;2022-10-16T08:29:58;101290.41;;;20.27;100.00
22872;BME280;11603;44.910;8.630;2022-10-16T08:32:24;101287.03;;;20.44;100.00
22872;BME280;11603;44.910;8.630;2022-10-16T08:34:49;101295.94;;;20.65;100.00
22872;BME280;11603;44.910;8.630;2022-10-16T08:37:15;101295.06;;;20.84;100.00
22872;BME280;11603;44.910;8.630;2022-10-16T08:39:40;101288.03;;;21.01;100.00
22872;BME280;11603;44.910;8.630;2022-10-16T08:50:30;101305.31;;;21.38;100.00
22872;BME280;11603;44.910;8.630;2022-10-16T08:52:57;101300.56;;;21.50;100.00
22872;BME280;11603;44.910;8.630;2022-10-16T08:55:41;101302.59;;;21.75;100.00
22872;BME280;11603;44.910;8.630;2022-10-16T09:00:41;101302.41;;;21.86;100.00
22872;BME280;11603;44.910;8.630;2022-10-16T09:10:58;101308.69;;;21.96;100.00
22872;BME280;11603;44.910;8.630;2022-10-16T09:13:40;101321.06;;;21.81;100.00
22872;BME280;11603;44.910;8.630;2022-10-16T09:16:30;101312.09;;;22.08;100.00
22872;BME280;11603;44.910;8.630;2022-10-16T09:19:20;101321.06;;;22.18;100.00
22872;BME280;11603;44.910;8.630;2022-10-16T09:21:49;101322.66;;;22.11;100.00
22872;BME280;11603;44.910;8.630;2022-10-16T09:24:19;101321.28;;;22.25;100.00
22872;BME280;11603;44.910;8.630;2022-10-16T09:26:46;101318.91;;;22.39;100.00
22872;BME280;11603;44.910;8.630;2022-10-16T09:29:15;101326.03;;;22.23;100.00
22872;BME280;11603;44.910;8.630;2022-10-16T09:31:42;101327.13;;;22.30;100.00
22872;BME280;11603;44.910;8.630;2022-10-16T09:34:32;101322.31;;;22.42;100.00
22872;BME280;11603;44.910;8.630;2022-10-16T09:37:03;101323.78;;;22.36;100.00
22872;BME280;11603;44.910;8.630;2022-10-16T09:39:29;101326.69;;;22.34;100.00
22872;BME280;11603;44.910;8.630;2022-10-16T09:41:55;101319.09;;;22.56;100.00
22872;BME280;11603;44.910;8.630;2022-10-16T09:44:24;101326.09;;;22.58;100.00
22872;BME280;11603;44.910;8.630;2022-10-16T09:47:02;101322.00;;;22.90;100.00
22872;BME280;11603;44.910;8.630;2022-10-16T09:49:28;101328.69;;;22.95;100.00
22872;BME280;11603;44.910;8.630;2022-10-16T09:52:12;101318.69;;;23.04;100.00
22872;BME280;11603;44.910;8.630;2022-10-16T09:54:49;101320.97;;;22.91;100.00
22872;BME280;11603;44.910;8.630;2022-10-16T09:57:14;101320.03;;;22.82;100.00
22872;BME280;11603;44.910;8.630;2022-10-16T09:59:48;101312.69;;;22.65;100.00
22872;BME280;11603;44.910;8.630;2022-10-16T10:02:15;101320.31;;;22.61;100.00
22872;BME280;11603;44.910;8.630;2022-10-16T10:04:48;101322.22;;;22.96;100.00
22872;BME280;11603;44.910;8.630;2022-10-16T10:07:25;101323.31;;;22.86;100.00
22872;BME280;11603;44.910;8.630;2022-10-16T10:09:52;101320.31;;;22.61;100.00
22872;BME280;11603;44.910;8.630;2022-10-16T10:12:22;101320.03;;;22.82;100.00
22872;BME280;11603;44.910;8.630;2022-10-16T10:14:54;101318.22;;;23.08;100.00
22872;BME280;11603;44.910;8.630;2022-10-16T10:17:26;101320.75;;;23.02;100.00
22872;BME280;11603;44.910;8.630;2022-10-16T10:22:46;101320.38;;;23.22;100.00
22872;BME280;11603;44.910;8.630;2022-10-16T10:30:29;101321.03;;;23.42;100.00
22872;BME280;11603;44.910;8.630;2022-10-16T10:33:11;101313.84;;;23.41;100.00
22872;BME280;11603;44.910;8.630;2022-10-16T10:35:56;101314.94;;;23.22;100.00
22872;BME280;11603;44.910;8.630;2022-10-16T10:38:53;101316.41;;;23.17;100.00
22872;BME280;11603;44.910;8.630;2022-10-16T10:46:35;101302.56;;;23.62;100.00
22872;BME280;11603;44.910;8.630;2022-10-16T10:49:13;101306.91;;;23.73;100.00
22872;BME280;11603;44.910;8.630;2022-10-16T10:52:01;101303.78;;;23.68;100.00
22872;BME280;11603;44.910;8.630;2022-10-16T10:55:08;101304.13;;;23.39;100.00
22872;BME280;11603;44.910;8.630;2022-10-16T10:57:34;101303.91;;;23.32;100.00
22872;BME280;11603;44.910;8.630;2022-10-16T11:02:39;101309.88;;;23.36;100.00
22872;BME280;11603;44.910;8.630;2022-10-16T11:09:10;101307.50;;;23.33;100.00
22872;BME280;11603;44.910;8.630;2022-10-16T11:11:16;101297.81;;;23.64;100.00
22872;BME280;11603;44.910;8.630;2022-10-16T11:14:18;101297.78;;;23.98;100.00
22872;BME280;11603;44.910;8.630;2022-10-16T11:16:58;101298.97;;;23.95;100.00
22872;BME280;11603;44.910;8.630;2022-10-16T11:19:41;101304.59;;;23.86;100.00
22872;BME280;11603;44.910;8.630;2022-10-16T11:22:23;101306.81;;;23.90;100.00
22872;BME280;11603;44.910;8.630;2022-10-16T11:27:39;101296.69;;;23.83;100.00
22872;BME280;11603;44.910;8.630;2022-10-16T11:30:13;101292.78;;;23.85;100.00
22872;BME280;11603;44.910;8.630;2022-10-16T11:33:04;101293.69;;;23.94;100.00
22872;BME280;11603;44.910;8.630;2022-10-16T11:35:43;101293.63;;;24.20;100.00
22872;BME280;11603;44.910;8.630;2022-10-16T11:38:38;101289.06;;;24.44;100.00
22872;BME280;11603;44.910;8.630;2022-10-16T11:43:41;101282.09;;;24.58;100.00
22872;BME280;11603;44.910;8.630;2022-10-16T11:46:13;101274.22;;;24.39;100.00
22872;BME280;11603;44.910;8.630;2022-10-16T11:49:00;101266.00;;;24.47;100.00
22872;BME280;11603;44.910;8.630;2022-10-16T11:51:38;101268.22;;;24.43;100.00
22872;BME280;11603;44.910;8.630;2022-10-16T11:56:41;101256.09;;;24.86;100.00
22872;BME280;11603;44.910;8.630;2022-10-16T11:59:30;101258.50;;;24.98;100.00
22872;BME280;11603;44.910;8.630;2022-10-16T12:07:33;101251.25;;;25.45;100.00
22872;BME280;11603;44.910;8.630;2022-10-16T12:10:19;101248.81;;;25.50;100.00
22872;BME280;11603;44.910;8.630;2022-10-16T12:12:45;101250.72;;;25.58;100.00
22872;BME280;11603;44.910;8.630;2022-10-16T12:17:46;101252.72;;;25.72;100.00
22872;BME280;11603;44.910;8.630;2022-10-16T12:22:47;101247.09;;;25.49;100.00
22872;BME280;11603;44.910;8.630;2022-10-16T12:25:39;101245.97;;;25.36;100.00
22872;BME280;11603;44.910;8.630;2022-10-16T12:30:40;101247.38;;;24.75;100.00
22872;BME280;11603;44.910;8.630;2022-10-16T12:33:22;101240.88;;;24.76;100.00
22872;BME280;11603;44.910;8.630;2022-10-16T12:35:49;101244.81;;;24.81;100.00
22872;BME280;11603;44.910;8.630;2022-10-16T12:38:21;101242.06;;;24.33;100.00
22872;BME280;11603;44.910;8.630;2022-10-16T12:41:04;101242.41;;;24.46;100.00
22872;BME280;11603;44.910;8.630;2022-10-16T12:43:40;101246.16;;;24.61;100.00
22872;BME280;11603;44.910;8.630;2022-10-16T12:48:33;101241.91;;;24.83;100.00
22872;BME280;11603;44.910;8.630;2022-10-16T12:51:19;101236.81;;;24.88;100.00
22872;BME280;11603;44.910;8.630;2022-10-16T12:54:19;101246.22;;;25.02;100.00
22872;BME280;11603;44.910;8.630;2022-10-16T13:05:16;101237.69;;;25.60;100.00
22872;BME280;11603;44.910;8.630;2022-10-16T13:10:28;101232.44;;;25.34;100.00
22872;BME280;11603;44.910;8.630;2022-10-16T13:15:51;101240.66;;;25.34;100.00
22872;BME280;11603;44.910;8.630;2022-10-16T13:24:04;101237.63;;;24.80;100.00
22872;BME280;11603;44.910;8.630;2022-10-16T13:26:50;101233.84;;;24.81;100.00
22872;BME280;11603;44.910;8.630;2022-10-16T13:29:19;101235.06;;;24.71;100.00
22872;BME280;11603;44.910;8.630;2022-10-16T13:31:44;101234.03;;;24.56;100.00
22872;BME280;11603;44.910;8.630;2022-10-16T13:34:21;101234.03;;;24.47;100.00
22872;BME280;11603;44.910;8.630;2022-10-16T13:36:49;101234.19;;;24.46;100.00
22872;BME280;11603;44.910;8.630;2022-10-16T13:39:23;101233.03;;;24.48;100.00
22872;BME280;11603;44.910;8.630;2022-10-16T13:42:14;101245.84;;;24.56;100.00
22872;BME280;11603;44.910;8.630;2022-10-16T13:44:44;101244.47;;;24.76;100.00
22872;BME280;11603;44.910;8.630;2022-10-16T13:47:18;101247.22;;;24.84;100.00
22872;BME280;11603;44.910;8.630;2022-10-16T13:49:45;101245.84;;;24.72;100.00
22872;BME280;11603;44.910;8.630;2022-10-16T13:52:20;101246.72;;;24.65;100.00
22872;BME280;11603;44.910;8.630;2022-10-16T13:54:47;101248.22;;;24.51;100.00
22872;BME280;11603;44.910;8.630;2022-10-16T13:57:16;101246.38;;;24.60;100.00
22872;BME280;11603;44.910;8.630;2022-10-16T13:59:42;101254.59;;;25.00;100.00
22872;BME280;11603;44.910;8.630;2022-10-16T14:02:27;101247.22;;;25.17;100.00
22872;BME280;11603;44.910;8.630;2022-10-16T14:04:55;101249.78;;;25.02;100.00
22872;BME280;11603;44.910;8.630;2022-10-16T14:07:28;101248.59;;;25.05;100.00
22872;BME280;11603;44.910;8.630;2022-10-16T14:09:54;101253.72;;;25.08;100.00
22872;BME280;11603;44.910;8.630;2022-10-16T14:12:21;101257.13;;;25.10;100.00
22872;BME280;11603;44.910;8.630;2022-10-16T14:14:50;101262.63;;;25.10;100.00
22872;BME280;11603;44.910;8.630;2022-10-16T14:17:26;101263.13;;;25.05;100.00
22872;BME280;11603;44.910;8.630;2022-10-16T14:19:55;101256.41;;;25.24;100.00
22872;BME280;11603;44.910;8.630;2022-10-16T14:24:59;101247.84;;;26.52;94.05
22872;BME280;11603;44.910;8.630;2022-10-16T14:27:33;101248.09;;;26.42;92.51
22872;BME280;11603;44.910;8.630;2022-10-16T14:30:26;101249.28;;;25.70;96.86
22872;BME280;11603;44.910;8.630;2022-10-16T14:35:29;101262.97;;;25.07;100.00